Terminal Aerodrome Forecast
Issued by NWS

Home | Current Version | Previous Version | Text Only | Print | Product List | Glossary On
Versions: 1 2 3 4 5 6 7 8 9 10 11 12 13 14 15 16 17
000
FTUS41 KALY 031720
TAFPSF
TAF
KPSF 031720Z 0318/0418 19010G20KT P6SM SCT050 SCT100
      TEMPO 0321/0324 BKN050 BKN100
     FM040000 18011G15KT P6SM SCT025 BKN050
      TEMPO 0400/0404 4SM -TSRA BR BKN025CB OVC050
     FM040500 18007KT 5SM BR BKN050 BKN100
     FM040900 VRB03KT 3SM BR OVC020
     FM041300 21008KT P6SM SCT040=

USA.gov is the U.S. government's official web portal to all federal, state and local government web resources and services.